Time;durP1;ratioP1;P1;durP2;ratioP2;P2;SDS_P1;SDS_P2;PMS_P1;PMS_P2;Temp;Humidity;BMP_temperature;BMP_pressure;BME280_temperature;BME280_humidity;BME280_pressure;Samples;Min_cycle;Max_cycle;Signal;HPM_P1;HPM_P2
2023/04/18 18:04:03;;;;;;;17.75;11.02;;;13.40;54.00;;;;;;5202761;23;20051;-83
2023/04/18 18:06:29;;;;;;;24.27;11.63;;;13.40;54.10;;;;;;4970990;28;20038;-85
2023/04/18 18:08:55;;;;;;;14.90;9.90;;;13.40;54.20;;;;;;4994455;28;20029;-83
2023/04/18 18:11:21;;;;;;;17.10;10.50;;;13.40;54.20;;;;;;4980556;28;20429;-85
2023/04/18 18:13:53;;;;;;;18.88;10.30;;;13.50;54.30;;;;;;4956076;28;20076;-83
2023/04/18 18:16:19;;;;;;;12.40;9.60;;;13.50;54.30;;;;;;4979471;28;20495;-81
2023/04/18 18:18:45;;;;;;;12.77;9.18;;;13.50;54.20;;;;;;4970723;28;20019;-85
2023/04/18 18:21:11;;;;;;;15.10;8.80;;;13.50;54.10;;;;;;4969041;28;20034;-83
2023/04/18 18:23:37;;;;;;;12.70;9.45;;;13.50;54.00;;;;;;4976612;28;20018;-83
2023/04/18 18:26:05;;;;;;;13.60;9.98;;;13.50;54.10;;;;;;4973932;28;20034;-82
2023/04/18 18:28:33;;;;;;;14.95;9.18;;;13.40;54.10;;;;;;4985391;28;20090;-87
2023/04/18 18:30:59;;;;;;;12.00;9.50;;;13.40;54.00;;;;;;4955733;29;20026;-90
2023/04/18 18:33:26;;;;;;;18.75;8.88;;;13.40;54.10;;;;;;4984990;28;20031;-91
2023/04/18 18:35:53;;;;;;;18.50;8.68;;;13.40;53.90;;;;;;4992194;28;20033;-90
2023/04/18 18:38:19;;;;;;;13.32;9.25;;;13.40;54.00;;;;;;4989877;28;20050;-87
2023/04/18 18:40:45;;;;;;;12.00;7.82;;;13.30;53.70;;;;;;4972777;28;20030;-87
2023/04/18 18:43:12;;;;;;;13.95;8.80;;;13.30;53.60;;;;;;4989162;28;20395;-84
2023/04/18 18:45:38;;;;;;;16.40;9.07;;;13.30;53.70;;;;;;4964382;28;20033;-83
2023/04/18 18:48:08;;;;;;;19.88;8.63;;;13.20;53.20;;;;;;4984937;28;20069;-82
2023/04/18 18:50:34;;;;;;;14.65;7.75;;;13.20;53.20;;;;;;4970654;28;20143;-84
2023/04/18 18:53:00;;;;;;;14.15;7.65;;;13.20;53.00;;;;;;4982039;28;20471;-84
2023/04/18 18:55:27;;;;;;;13.73;8.63;;;13.20;53.00;;;;;;4970132;28;20090;-85
2023/04/18 18:57:53;;;;;;;15.90;7.97;;;13.20;52.30;;;;;;4965709;28;20019;-82
2023/04/18 19:00:19;;;;;;;14.95;9.43;;;13.20;52.20;;;;;;4970594;28;20038;-84
2023/04/18 19:02:45;;;;;;;13.70;7.68;;;13.20;51.90;;;;;;4979146;28;20022;-82
2023/04/18 19:05:13;;;;;;;12.45;8.30;;;13.20;51.60;;;;;;4972252;28;20094;-84
2023/04/18 19:07:41;;;;;;;9.95;7.68;;;13.30;51.50;;;;;;4975866;28;20027;-83
2023/04/18 19:10:08;;;;;;;10.77;7.40;;;13.20;51.50;;;;;;4976253;28;20019;-83
2023/04/18 19:12:34;;;;;;;;;;;13.20;52.10;;;;;;4977635;28;20038;-83
2023/04/18 19:15:00;;;;;;;12.48;7.47;;;13.20;51.30;;;;;;4977178;28;19907;-82
2023/04/18 19:17:26;;;;;;;11.65;7.75;;;13.10;51.30;;;;;;4973964;28;20023;-83
2023/04/18 19:19:56;;;;;;;11.02;8.13;;;13.10;51.40;;;;;;4964136;28;20049;-87
2023/04/18 19:22:22;;;;;;;15.23;8.00;;;13.00;51.50;;;;;;4953771;28;20058;-84
2023/04/18 19:24:48;;;;;;;13.48;8.13;;;13.10;51.50;;;;;;4966808;28;20053;-85
2023/04/18 19:27:14;;;;;;;14.00;7.90;;;13.00;51.30;;;;;;4947409;29;20063;-85
2023/04/18 19:29:40;;;;;;;10.98;7.35;;;13.00;51.40;;;;;;4970482;28;20531;-84
2023/04/18 19:32:06;;;;;;;8.00;6.47;;;13.00;51.30;;;;;;4971808;28;20022;-83
2023/04/18 19:34:32;;;;;;;13.25;7.25;;;13.00;51.20;;;;;;4981569;28;20034;-82
2023/04/18 19:36:58;;;;;;;11.05;8.48;;;13.00;51.30;;;;;;4959439;28;20170;-85
2023/04/18 19:39:24;;;;;;;10.70;7.07;;;13.00;51.20;;;;;;4962244;28;20027;-83
2023/04/18 19:41:50;;;;;;;12.70;7.35;;;12.90;51.00;;;;;;4957253;28;20514;-82
2023/04/18 19:44:16;;;;;;;14.98;8.07;;;12.90;50.90;;;;;;4950993;28;20023;-82
2023/04/18 19:46:42;;;;;;;12.88;7.63;;;12.90;50.80;;;;;;4959146;28;20026;-81
2023/04/18 19:49:08;;;;;;;12.95;8.13;;;12.90;50.90;;;;;;4965520;28;20018;-81
2023/04/18 19:51:34;;;;;;;16.08;7.82;;;12.90;50.80;;;;;;4948913;28;20484;-83
2023/04/18 19:54:00;;;;;;;12.15;7.13;;;12.90;50.80;;;;;;4975364;28;20019;-81
2023/04/18 19:56:26;;;;;;;12.68;7.95;;;12.90;50.80;;;;;;4973358;28;20027;-83
2023/04/18 19:58:52;;;;;;;11.18;7.90;;;12.90;50.70;;;;;;4969284;28;20033;-83
2023/04/18 20:01:19;;;;;;;13.18;8.15;;;13.00;50.70;;;;;;4973125;28;20069;-82
2023/04/18 20:03:45;;;;;;;13.43;8.32;;;12.90;50.70;;;;;;4971054;28;20061;-84
2023/04/18 20:06:12;;;;;;;16.83;8.25;;;12.90;50.80;;;;;;4950778;28;20031;-79
2023/04/18 20:08:43;;;;;;;18.15;9.35;;;12.90;50.90;;;;;;4973540;28;20015;-81
2023/04/18 20:11:10;;;;;;;13.38;8.73;;;12.90;51.10;;;;;;4948828;28;20027;-82
2023/04/18 20:13:36;;;;;;;13.18;7.78;;;12.90;51.00;;;;;;4969053;28;20023;-80
2023/04/18 20:16:03;;;;;;;15.13;8.85;;;12.90;50.80;;;;;;4955798;28;20472;-77
2023/04/18 20:18:31;;;;;;;14.32;7.75;;;12.90;50.90;;;;;;4956763;28;20023;-78
2023/04/18 20:20:57;;;;;;;13.07;8.23;;;12.80;50.90;;;;;;4956516;28;20035;-80
2023/04/18 20:23:23;;;;;;;16.27;7.95;;;12.80;50.70;;;;;;4956976;28;20111;-79
2023/04/18 20:25:49;;;;;;;13.48;8.38;;;12.80;50.70;;;;;;4956199;28;20078;-78
2023/04/18 20:28:15;;;;;;;12.63;7.95;;;12.80;50.70;;;;;;4957924;28;20504;-79
2023/04/18 20:30:41;;;;;;;14.70;8.27;;;12.80;50.70;;;;;;4955992;28;20031;-80
2023/04/18 20:33:07;;;;;;;13.73;7.90;;;12.70;50.80;;;;;;4972604;28;20398;-80
2023/04/18 20:35:33;;;;;;;13.38;8.80;;;12.70;50.70;;;;;;4957230;28;20034;-78
2023/04/18 20:37:59;;;;;;;14.85;8.52;;;12.70;50.90;;;;;;4967466;28;20030;-76
2023/04/18 20:40:26;;;;;;;18.05;8.93;;;12.70;51.00;;;;;;4959253;28;20102;-78
2023/04/18 20:42:56;;;;;;;15.63;8.93;;;12.70;51.10;;;;;;4956502;28;20087;-77
2023/04/18 20:45:23;;;;;;;14.52;8.10;;;12.70;51.20;;;;;;4957186;28;20030;-79
2023/04/18 20:47:49;;;;;;;13.07;9.70;;;12.70;51.30;;;;;;4955889;28;20027;-77
2023/04/18 20:50:17;;;;;;;17.35;9.57;;;12.60;51.10;;;;;;4957133;28;20499;-78
2023/04/18 20:52:43;;;;;;;17.45;9.10;;;12.60;51.30;;;;;;4958646;28;20019;-77
2023/04/18 20:55:09;;;;;;;16.42;9.82;;;12.60;51.40;;;;;;4970314;28;20065;-78
2023/04/18 20:57:35;;;;;;;16.23;8.45;;;12.60;51.50;;;;;;4960822;28;20011;-79
2023/04/18 21:00:01;;;;;;;19.73;10.18;;;12.60;52.20;;;;;;4963987;28;20047;-79
2023/04/18 21:02:27;;;;;;;19.95;11.20;;;12.60;51.50;;;;;;4973915;28;20141;-81
2023/04/18 21:04:53;;;;;;;18.10;10.80;;;12.60;51.40;;;;;;4960398;28;20095;-81
2023/04/18 21:07:20;;;;;;;16.33;10.27;;;12.60;51.30;;;;;;4976044;28;20106;-83
2023/04/18 21:09:46;;;;;;;14.05;9.20;;;12.50;51.30;;;;;;4961328;28;20487;-81
2023/04/18 21:12:12;;;;;;;26.75;11.30;;;12.50;51.40;;;;;;4956222;28;20107;-80
2023/04/18 21:14:38;;;;;;;15.95;10.02;;;12.50;51.50;;;;;;4963403;28;20110;-81
2023/04/18 21:17:04;;;;;;;14.50;9.70;;;12.50;51.50;;;;;;4972942;28;20003;-81
2023/04/18 21:19:30;;;;;;;13.40;9.20;;;12.50;51.50;;;;;;4999632;28;20018;-79
2023/04/18 21:21:56;;;;;;;15.32;8.85;;;12.40;51.00;;;;;;4969797;28;20046;-80
2023/04/18 21:24:22;;;;;;;12.18;8.10;;;12.40;51.20;;;;;;4989262;28;20142;-81
2023/04/18 21:26:49;;;;;;;19.75;8.68;;;12.30;51.30;;;;;;4962868;28;20030;-84
2023/04/18 21:29:15;;;;;;;10.60;8.57;;;12.30;50.90;;;;;;4976185;28;20121;-78
2023/04/18 21:31:41;;;;;;;12.75;8.63;;;12.30;51.00;;;;;;4981057;28;20118;-79
2023/04/18 21:34:07;;;;;;;12.60;9.45;;;12.30;50.90;;;;;;4983845;28;20081;-81
2023/04/18 21:36:33;;;;;;;12.05;9.02;;;12.20;50.80;;;;;;4984565;28;20022;-78
2023/04/18 21:38:59;;;;;;;13.70;9.30;;;12.20;51.00;;;;;;4976710;28;20023;-78
2023/04/18 21:41:26;;;;;;;12.48;8.35;;;12.20;51.00;;;;;;4976937;28;20027;-80
2023/04/18 21:43:52;;;;;;;16.48;9.15;;;12.10;50.60;;;;;;4976486;28;20106;-76
2023/04/18 21:46:18;;;;;;;14.23;9.63;;;12.10;50.70;;;;;;4976310;28;20058;-79
2023/04/18 21:48:45;;;;;;;19.13;9.00;;;12.00;50.50;;;;;;4976347;28;20033;-79
2023/04/18 21:51:14;;;;;;;13.55;8.30;;;12.00;50.60;;;;;;4976740;28;20018;-76
2023/04/18 21:53:41;;;;;;;12.48;9.10;;;12.00;50.60;;;;;;4965381;28;20042;-78
2023/04/18 21:56:07;;;;;;;22.75;9.40;;;11.90;50.60;;;;;;4976427;28;20491;-78
2023/04/18 21:58:34;;;;;;;12.57;8.15;;;11.90;50.70;;;;;;4958746;28;20054;-78
2023/04/18 22:01:00;;;;;;;13.43;8.40;;;11.90;50.60;;;;;;4976041;28;20027;-78
2023/04/18 22:03:27;;;;;;;13.18;8.80;;;11.90;50.50;;;;;;4967794;28;20034;-79
2023/04/18 22:05:55;;;;;;;24.95;9.95;;;11.90;50.50;;;;;;4948911;28;20050;-76
2023/04/18 22:08:28;;;;;;;13.00;8.85;;;11.80;50.50;;;;;;4965514;28;20218;-78
2023/04/18 22:10:56;;;;;;;25.45;10.27;;;11.80;50.50;;;;;;4957027;28;20594;-78
2023/04/18 22:13:23;;;;;;;18.55;8.05;;;11.80;50.30;;;;;;4976632;28;20070;-79
2023/04/18 22:15:50;;;;;;;14.93;8.25;;;11.80;50.30;;;;;;4961773;28;20037;-78
2023/04/18 22:18:17;;;;;;;17.80;8.07;;;11.80;50.40;;;;;;4959736;28;20094;-80
2023/04/18 22:20:44;;;;;;;17.20;8.38;;;11.70;50.40;;;;;;4960592;28;20114;-79
2023/04/18 22:23:10;;;;;;;16.55;8.50;;;11.70;50.40;;;;;;4963699;28;20023;-80
2023/04/18 22:25:36;;;;;;;14.48;8.15;;;11.80;50.50;;;;;;4960182;28;20027;-79
2023/04/18 22:28:03;;;;;;;14.90;8.20;;;11.80;50.30;;;;;;4962745;28;20451;-80
2023/04/18 22:30:30;;;;;;;13.13;7.85;;;11.80;50.30;;;;;;4975350;28;20053;-80
2023/04/18 22:32:57;;;;;;;14.07;8.43;;;11.70;50.10;;;;;;4965689;28;20448;-79
2023/04/18 22:35:23;;;;;;;13.98;8.30;;;11.70;50.20;;;;;;4968743;28;20439;-80
2023/04/18 22:37:49;;;;;;;11.45;7.60;;;11.70;50.10;;;;;;4968051;28;20114;-79
2023/04/18 22:40:15;;;;;;;12.93;8.02;;;11.70;50.00;;;;;;4978318;28;20117;-78
2023/04/18 22:42:42;;;;;;;13.63;7.35;;;11.70;49.80;;;;;;4960769;28;20031;-79
2023/04/18 22:45:08;;;;;;;11.77;7.13;;;11.70;49.70;;;;;;4965285;28;20022;-79
2023/04/18 22:47:34;;;;;;;10.02;7.22;;;11.70;49.60;;;;;;4960695;28;20046;-77
2023/04/18 22:50:00;;;;;;;15.20;8.13;;;11.60;49.50;;;;;;4966817;28;20022;-77
2023/04/18 22:52:27;;;;;;;9.60;7.75;;;11.60;49.60;;;;;;4974688;28;20058;-90
2023/04/18 22:54:56;;;;;;;13.38;7.78;;;11.60;49.60;;;;;;4966705;28;20035;-89
2023/04/18 22:57:23;;;;;;;12.77;6.85;;;11.60;49.70;;;;;;4978731;28;20039;-84
2023/04/18 22:59:49;;;;;;;17.20;7.93;;;11.60;49.70;;;;;;4970805;28;20035;-88
2023/04/18 23:02:15;;;;;;;12.77;7.25;;;11.60;49.90;;;;;;4970248;28;20046;-87
2023/04/18 23:04:44;;;;;;;12.50;7.45;;;11.50;50.40;;;;;;4996503;28;20058;-88
2023/04/18 23:07:10;;;;;;;12.15;8.63;;;11.50;49.70;;;;;;4971381;28;20049;-87
2023/04/18 23:09:36;;;;;;;15.68;7.70;;;11.50;49.80;;;;;;4958836;28;20024;-86
2023/04/18 23:12:02;;;;;;;10.85;7.82;;;11.40;49.80;;;;;;4976669;28;20031;-87
2023/04/18 23:14:28;;;;;;;12.63;7.45;;;11.40;49.90;;;;;;4965807;29;20008;-86
2023/04/18 23:16:54;;;;;;;17.67;8.02;;;11.40;49.90;;;;;;4981402;28;20047;-88
2023/04/18 23:19:20;;;;;;;16.52;7.40;;;11.40;49.90;;;;;;4973325;28;20035;-88
2023/04/18 23:21:46;;;;;;;11.63;7.78;;;11.40;49.90;;;;;;4984772;28;20497;-88
2023/04/18 23:24:12;;;;;;;14.00;8.15;;;11.30;50.00;;;;;;4962392;28;20007;-87
2023/04/18 23:26:38;;;;;;;15.32;8.35;;;11.30;50.00;;;;;;4964316;28;20046;-88
2023/04/18 23:29:04;;;;;;;12.27;9.05;;;11.30;50.00;;;;;;4945850;28;20065;-88
2023/04/18 23:31:33;;;;;;;12.20;7.35;;;11.20;50.10;;;;;;4958976;28;20031;-86
2023/04/18 23:33:59;;;;;;;11.43;7.75;;;11.20;50.80;;;;;;4960066;28;20027;-88
2023/04/18 23:36:26;;;;;;;12.70;8.77;;;11.20;50.20;;;;;;4942770;28;20023;-87
2023/04/18 23:38:52;;;;;;;12.10;8.32;;;11.10;50.30;;;;;;4948011;28;20113;-87
2023/04/18 23:41:19;;;;;;;14.35;8.70;;;11.10;50.30;;;;;;4969278;28;20145;-85
2023/04/18 23:43:45;;;;;;;11.75;9.43;;;11.00;50.40;;;;;;4980431;28;20015;-85
2023/04/18 23:46:11;;;;;;;12.98;9.00;;;11.10;50.50;;;;;;4968152;28;20120;-88
2023/04/18 23:48:37;;;;;;;13.27;8.03;;;11.10;50.60;;;;;;4957539;28;20019;-87
2023/04/18 23:51:03;;;;;;;14.48;7.97;;;11.00;51.20;;;;;;4959381;28;20030;-88
2023/04/18 23:53:30;;;;;;;13.88;8.70;;;11.00;50.60;;;;;;4951830;28;20027;-88
2023/04/18 23:55:56;;;;;;;12.25;8.60;;;11.00;50.70;;;;;;4959679;28;20050;-87
2023/04/18 23:58:22;;;;;;;13.02;8.80;;;11.00;50.80;;;;;;4980644;28;20459;-88
